createdAt,value
2018-04-15T03:32:33.794Z,99.90
2018-04-15T03:35:07.638Z,99.90
2018-04-15T03:37:41.454Z,99.90
2018-04-15T03:40:15.334Z,99.90
2018-04-15T03:42:49.936Z,99.90
2018-04-15T03:45:23.622Z,99.90
2018-04-15T03:47:57.502Z,99.90
2018-04-15T03:50:32.061Z,99.90
2018-04-15T03:53:05.939Z,99.90
2018-04-15T03:55:41.511Z,99.90
2018-04-15T03:58:34.694Z,99.90
2018-04-15T04:01:08.450Z,99.90
2018-04-15T04:03:42.254Z,99.90
2018-04-15T04:06:16.036Z,99.90
2018-04-15T04:08:49.908Z,99.90
2018-04-15T04:11:23.540Z,99.90
2018-04-15T04:13:57.346Z,99.90
2018-04-15T04:16:31.930Z,99.90
2018-04-15T04:19:18.343Z,99.90
2018-04-15T04:22:04.715Z,99.90
2018-04-15T04:27:36.002Z,99.90
2018-04-15T04:30:09.847Z,99.90
2018-04-15T04:32:43.566Z,99.90
2018-04-15T04:35:18.398Z,99.90
2018-04-15T04:37:54.394Z,99.90
2018-04-15T04:40:29.203Z,99.90
2018-04-15T04:43:03.050Z,99.90
2018-04-15T04:45:36.914Z,99.90
2018-04-15T04:48:10.619Z,99.90
2018-04-15T04:50:45.277Z,99.90
2018-04-15T04:53:19.715Z,99.90
2018-04-15T04:55:53.401Z,99.90
2018-04-15T04:58:28.046Z,99.90
2018-04-15T05:01:01.870Z,99.90
2018-04-15T05:03:35.559Z,99.90
2018-04-15T05:06:10.175Z,99.90
2018-04-15T05:08:43.978Z,99.90
2018-04-15T05:11:18.500Z,99.90
2018-04-15T05:13:52.355Z,99.90
2018-04-15T05:16:26.925Z,99.90
2018-04-15T05:19:01.470Z,99.90
2018-04-15T05:21:35.190Z,99.90
2018-04-15T05:24:09.812Z,99.90
2018-04-15T05:26:43.626Z,99.90
2018-04-15T05:29:18.322Z,99.90
2018-04-15T05:31:52.170Z,99.90
2018-04-15T05:34:26.969Z,99.90
2018-04-15T05:37:00.734Z,99.90
2018-04-15T05:39:34.506Z,99.90
2018-04-15T05:42:08.258Z,99.90
2018-04-15T05:44:42.141Z,99.90
2018-04-15T05:49:42.131Z,99.90
2018-04-15T05:52:16.619Z,99.90
2018-04-15T05:54:50.494Z,99.90
2018-04-15T05:57:24.226Z,99.80
2018-04-15T05:59:58.106Z,99.70
2018-04-15T06:02:31.895Z,99.50
2018-04-15T06:05:06.604Z,99.10
2018-04-15T06:07:40.606Z,99.40
2018-04-15T06:10:14.417Z,99.10
2018-04-15T06:12:48.820Z,98.80
2018-04-15T06:15:22.591Z,98.80
2018-04-15T06:17:57.920Z,98.50
2018-04-15T06:20:31.759Z,98.50
2018-04-15T06:23:05.608Z,98.30
2018-04-15T06:25:39.465Z,97.90
2018-04-15T06:28:13.299Z,98.00
2018-04-15T06:30:47.470Z,98.00
2018-04-15T06:33:21.090Z,98.00
2018-04-15T06:35:55.762Z,97.90
2018-04-15T06:38:29.530Z,97.90
2018-04-15T06:41:04.192Z,97.50
2018-04-15T06:43:38.058Z,97.30
2018-04-15T06:46:11.803Z,97.30
2018-04-15T06:48:45.623Z,97.30
2018-04-15T06:51:20.284Z,97.20
2018-04-15T06:53:54.840Z,97.10
2018-04-15T06:56:28.635Z,97.10
2018-04-15T06:59:02.350Z,97.00
2018-04-15T07:01:39.024Z,96.50
2018-04-15T07:04:12.854Z,96.50
2018-04-15T07:06:46.566Z,96.20
2018-04-15T07:09:20.415Z,96.10
2018-04-15T07:11:54.201Z,96.00
2018-04-15T07:14:27.966Z,95.50
2018-04-15T07:17:02.601Z,95.20
2018-04-15T07:19:36.355Z,95.20
2018-04-15T07:22:10.169Z,95.20
2018-04-15T07:24:44.723Z,95.20
2018-04-15T07:27:18.476Z,95.20
2018-04-15T07:29:52.271Z,95.30
2018-04-15T07:32:26.078Z,95.40
2018-04-15T07:34:59.888Z,94.90
2018-04-15T07:37:34.562Z,95.10
2018-04-15T07:40:08.420Z,95.10
2018-04-15T07:42:43.003Z,94.90
2018-04-15T07:45:16.708Z,94.90
2018-04-15T07:47:51.302Z,95.00
2018-04-15T07:50:27.125Z,94.90
2018-04-15T07:53:00.857Z,94.90
2018-04-15T07:55:37.788Z,95.30
2018-04-15T07:58:11.591Z,95.70
2018-04-15T08:00:45.469Z,95.60
2018-04-15T08:03:19.463Z,96.00
2018-04-15T08:05:53.233Z,96.10
2018-04-15T08:08:27.794Z,95.30
2018-04-15T08:11:01.951Z,95.40
2018-04-15T08:13:35.658Z,95.90
2018-04-15T08:16:09.868Z,95.60
2018-04-15T08:18:43.617Z,95.30
2018-04-15T08:21:17.422Z,95.10
2018-04-15T08:23:51.304Z,94.80
2018-04-15T08:26:25.172Z,94.80
2018-04-15T08:28:59.024Z,92.80
2018-04-15T08:31:32.846Z,91.60
2018-04-15T08:34:06.966Z,90.20
2018-04-15T08:36:41.008Z,89.40
2018-04-15T08:39:14.637Z,88.60
2018-04-15T08:41:48.329Z,85.70
2018-04-15T08:44:22.152Z,83.10
2018-04-15T08:46:56.923Z,79.40
2018-04-15T08:49:31.466Z,80.50
2018-04-15T08:52:05.358Z,80.40
2018-04-15T08:54:39.111Z,80.50
2018-04-15T08:57:12.955Z,79.30
2018-04-15T08:59:47.505Z,79.90
2018-04-15T09:02:21.383Z,79.90
2018-04-15T09:04:55.015Z,77.80
2018-04-15T09:07:28.883Z,78.70
2018-04-15T09:10:03.361Z,79.30
2018-04-15T09:12:37.219Z,79.30
2018-04-15T09:15:10.979Z,78.60
2018-04-15T09:17:45.511Z,76.20
2018-04-15T09:20:20.102Z,74.70
2018-04-15T09:22:53.992Z,74.70
2018-04-15T09:25:27.676Z,72.80
2018-04-15T09:28:01.407Z,71.30
2018-04-15T09:30:41.071Z,72.60
2018-04-15T09:33:14.986Z,73.80
2018-04-15T09:35:49.074Z,74.10
2018-04-15T09:38:22.863Z,73.50
2018-04-15T09:40:57.559Z,73.20
2018-04-15T09:43:31.238Z,73.30
2018-04-15T09:46:05.136Z,72.60
2018-04-15T09:48:38.974Z,73.50
2018-04-15T09:51:13.603Z,70.90
2018-04-15T09:53:47.423Z,70.80
2018-04-15T09:56:22.006Z,71.00
2018-04-15T09:58:56.442Z,70.00
2018-04-15T10:01:30.271Z,69.90
2018-04-15T10:04:04.006Z,68.90
2018-04-15T10:06:37.768Z,68.40
2018-04-15T10:09:11.845Z,71.80
2018-04-15T10:11:47.089Z,72.60
2018-04-15T10:14:20.843Z,72.60
2018-04-15T10:16:54.810Z,72.90
2018-04-15T10:19:28.582Z,74.90
2018-04-15T10:22:02.434Z,76.20
2018-04-15T10:24:36.973Z,77.40
2018-04-15T10:27:11.562Z,77.70
2018-04-15T10:29:45.422Z,77.50
2018-04-15T10:32:20.229Z,77.90
2018-04-15T10:34:54.143Z,77.90
2018-04-15T10:37:27.993Z,76.90
2018-04-15T10:40:01.761Z,76.80
2018-04-15T10:42:35.441Z,74.10
2018-04-15T10:45:09.953Z,73.40
2018-04-15T10:47:43.778Z,73.40
2018-04-15T10:50:17.483Z,73.40
2018-04-15T10:52:51.495Z,72.50
2018-04-15T10:55:26.011Z,66.70
2018-04-15T10:57:59.782Z,66.70
2018-04-15T11:00:33.553Z,66.80
2018-04-15T11:03:08.070Z,65.90
2018-04-15T11:05:41.863Z,65.90
2018-04-15T11:08:15.602Z,68.10
2018-04-15T11:10:50.165Z,70.50
2018-04-15T11:13:24.026Z,70.50
2018-04-15T11:15:58.589Z,67.10
2018-04-15T11:18:33.140Z,66.30
2018-04-15T11:21:07.835Z,67.80
2018-04-15T11:23:41.676Z,67.80
2018-04-15T11:26:16.300Z,71.60
2018-04-15T11:28:50.129Z,71.60
2018-04-15T11:31:26.544Z,68.70
2018-04-15T11:34:00.420Z,68.70
2018-04-15T11:36:34.202Z,69.40
2018-04-15T11:39:08.710Z,70.20
2018-04-15T11:41:42.552Z,70.10
2018-04-15T11:44:17.024Z,67.60
2018-04-15T11:46:51.647Z,66.90
2018-04-15T11:49:25.384Z,66.80
2018-04-15T11:51:59.990Z,66.80
2018-04-15T11:54:33.746Z,66.70
2018-04-15T11:57:07.502Z,67.60
2018-04-15T11:59:41.246Z,68.40
2018-04-15T12:02:15.013Z,68.40
2018-04-15T12:04:48.754Z,66.50
2018-04-15T12:07:23.387Z,67.20
2018-04-15T12:09:58.301Z,66.90
2018-04-15T12:12:32.814Z,65.60
2018-04-15T12:15:06.634Z,65.30
2018-04-15T12:17:40.353Z,66.80
2018-04-15T12:20:14.817Z,68.80
2018-04-15T12:22:49.345Z,67.80
2018-04-15T12:25:23.214Z,67.70
2018-04-15T12:27:56.919Z,68.70
2018-04-15T12:30:30.822Z,67.20
2018-04-15T12:33:08.341Z,66.40
2018-04-15T12:35:42.131Z,64.70
2018-04-15T12:38:15.999Z,64.60
2018-04-15T12:40:49.748Z,63.30
2018-04-15T12:43:23.690Z,63.00
2018-04-15T12:45:58.196Z,64.40
2018-04-15T12:48:32.746Z,65.20
2018-04-15T12:51:06.519Z,65.20
2018-04-15T12:53:40.456Z,66.10
2018-04-15T12:56:14.346Z,65.30
2018-04-15T12:58:48.122Z,63.90
2018-04-15T13:01:21.990Z,66.50
2018-04-15T13:03:55.722Z,63.20
2018-04-15T13:06:30.298Z,65.80
2018-04-15T13:09:04.059Z,65.80
2018-04-15T13:11:37.834Z,64.30
2018-04-15T13:14:11.662Z,63.90
2018-04-15T13:16:45.464Z,63.10
2018-04-15T13:19:19.246Z,63.20
2018-04-15T13:21:53.409Z,62.30
2018-04-15T13:24:27.982Z,64.00
2018-04-15T13:27:02.490Z,64.30
2018-04-15T13:29:36.339Z,64.30
2018-04-15T13:32:10.937Z,64.60
2018-04-15T13:34:44.751Z,64.60
2018-04-15T13:37:18.621Z,65.40
2018-04-15T13:39:52.355Z,62.90
2018-04-15T13:42:26.064Z,63.20
2018-04-15T13:44:59.954Z,61.30
2018-04-15T13:47:34.085Z,61.70
2018-04-15T13:50:07.759Z,59.60
2018-04-15T13:52:41.881Z,60.80
2018-04-15T13:55:15.714Z,62.00
2018-04-15T13:57:49.551Z,60.30
2018-04-15T14:00:23.216Z,58.10
2018-04-15T14:02:57.826Z,58.70
2018-04-15T14:05:32.328Z,56.40
2018-04-15T14:08:06.962Z,55.40
2018-04-15T14:10:40.665Z,55.50
2018-04-15T14:13:14.428Z,55.60
2018-04-15T14:15:48.254Z,57.70
2018-04-15T14:18:22.079Z,56.90
2018-04-15T14:20:55.895Z,56.30
2018-04-15T14:23:29.789Z,56.60
2018-04-15T14:26:03.478Z,56.30
2018-04-15T14:28:38.038Z,55.50
2018-04-15T14:31:11.799Z,55.50
2018-04-15T14:33:45.525Z,55.40
2018-04-15T14:36:20.133Z,54.00
2018-04-15T14:38:54.114Z,54.00
2018-04-15T14:41:28.079Z,55.20
2018-04-15T14:44:01.764Z,56.30
2018-04-15T14:46:35.478Z,57.60
2018-04-15T14:49:09.926Z,57.00
2018-04-15T14:51:44.541Z,57.30
2018-04-15T14:54:19.170Z,57.80
2018-04-15T14:56:52.994Z,57.80
2018-04-15T14:59:27.588Z,56.80
2018-04-15T15:02:01.322Z,56.80
2018-04-15T15:04:35.923Z,56.60
2018-04-15T15:07:09.708Z,56.60
2018-04-15T15:09:44.578Z,57.80
2018-04-15T15:12:18.253Z,57.80
2018-04-15T15:14:52.261Z,56.70
2018-04-15T15:17:26.238Z,56.10
2018-04-15T15:20:01.031Z,57.00
2018-04-15T15:22:36.826Z,57.00
2018-04-15T15:25:10.602Z,57.00
2018-04-15T15:27:45.062Z,57.30
2018-04-15T15:30:19.116Z,57.30
2018-04-15T15:32:52.777Z,58.00
2018-04-15T15:35:27.343Z,57.90
2018-04-15T15:38:01.191Z,57.80
2018-04-15T15:40:35.739Z,57.70
2018-04-15T15:43:09.545Z,57.70
2018-04-15T15:45:43.222Z,56.80
2018-04-15T15:48:16.969Z,57.00
2018-04-15T15:50:50.742Z,58.10
2018-04-15T15:53:24.652Z,56.70
2018-04-15T15:55:58.255Z,56.50
2018-04-15T15:58:32.177Z,57.10
2018-04-15T16:01:06.808Z,56.50
2018-04-15T16:03:40.710Z,56.50
2018-04-15T16:06:14.595Z,56.60
2018-04-15T16:08:48.362Z,55.90
2018-04-15T16:11:22.224Z,55.20
2018-04-15T16:13:56.014Z,56.50
2018-04-15T16:16:30.591Z,56.30
2018-04-15T16:19:05.184Z,57.20
2018-04-15T16:21:39.356Z,57.40
2018-04-15T16:24:13.166Z,57.30
2018-04-15T16:26:47.737Z,57.80
2018-04-15T16:29:21.525Z,58.40
2018-04-15T16:31:56.101Z,59.00
2018-04-15T16:34:29.888Z,59.00
2018-04-15T16:37:03.646Z,58.90
2018-04-15T16:39:38.227Z,59.00
2018-04-15T16:42:12.071Z,59.00
2018-04-15T16:44:45.784Z,59.30
2018-04-15T16:47:22.211Z,59.20
2018-04-15T16:49:56.067Z,59.20
2018-04-15T16:52:29.952Z,59.50
2018-04-15T16:55:03.752Z,59.60
2018-04-15T16:57:38.335Z,60.00
2018-04-15T17:00:13.054Z,60.50
2018-04-15T17:02:47.604Z,61.70
2018-04-15T17:05:22.196Z,63.30
2018-04-15T17:07:55.998Z,63.30
2018-04-15T17:10:29.731Z,64.70
2018-04-15T17:13:03.558Z,65.20
2018-04-15T17:15:37.370Z,66.40
2018-04-15T17:18:11.251Z,66.40
2018-04-15T17:20:46.214Z,67.50
2018-04-15T17:23:19.895Z,67.40
2018-04-15T17:25:54.527Z,68.80
2018-04-15T17:28:29.135Z,68.60
2018-04-15T17:31:03.133Z,68.50
2018-04-15T17:33:37.880Z,70.50
2018-04-15T17:36:11.776Z,69.60
2018-04-15T17:38:46.453Z,71.80
2018-04-15T17:41:21.068Z,70.90
2018-04-15T17:43:55.663Z,71.60
2018-04-15T17:46:30.265Z,71.60
2018-04-15T17:49:04.202Z,71.50
2018-04-15T17:51:38.062Z,71.80
2018-04-15T17:54:11.956Z,71.20
2018-04-15T17:56:46.503Z,71.90
2018-04-15T17:59:20.356Z,71.50
2018-04-15T18:01:54.951Z,72.20
2018-04-15T18:04:28.654Z,72.10
2018-04-15T18:07:02.403Z,72.30
2018-04-15T18:09:36.895Z,72.60
2018-04-15T18:12:11.297Z,72.00
2018-04-15T18:14:45.234Z,72.00
2018-04-15T18:17:19.085Z,71.50
2018-04-15T18:19:52.878Z,71.80
2018-04-15T18:22:27.615Z,71.10
2018-04-15T18:25:01.385Z,71.20
2018-04-15T18:27:35.171Z,72.60
2018-04-15T18:30:09.186Z,72.30
2018-04-15T18:32:43.008Z,73.30
2018-04-15T18:35:17.823Z,74.10
2018-04-15T18:37:51.562Z,74.10
2018-04-15T18:40:25.306Z,73.60
2018-04-15T18:42:59.006Z,74.20
2018-04-15T18:45:34.647Z,74.40
2018-04-15T18:48:08.592Z,74.30
2018-04-15T18:50:42.418Z,74.70
2018-04-15T18:53:16.106Z,75.30
2018-04-15T18:55:50.234Z,76.30
2018-04-15T18:58:23.992Z,75.90
2018-04-15T19:00:57.764Z,76.00
2018-04-15T19:03:31.620Z,76.40
2018-04-15T19:06:05.403Z,77.20
2018-04-15T19:08:40.054Z,77.90
2018-04-15T19:11:13.896Z,78.80
2018-04-15T19:13:47.879Z,79.60
2018-04-15T19:16:21.830Z,79.90
2018-04-15T19:18:56.059Z,80.30
2018-04-15T19:21:29.904Z,80.70
2018-04-15T19:24:04.653Z,81.60
2018-04-15T19:26:38.522Z,81.60
2018-04-15T19:29:12.276Z,82.00
2018-04-15T19:31:46.883Z,82.20
2018-04-15T19:34:20.645Z,82.20
2018-04-15T19:36:54.415Z,83.30
2018-04-15T19:39:29.238Z,83.00
2018-04-15T19:42:03.189Z,83.00
2018-04-15T19:44:37.672Z,83.60
2018-04-15T19:47:11.449Z,83.50
2018-04-15T19:49:46.095Z,83.70
2018-04-15T19:52:19.871Z,83.70
2018-04-15T19:54:54.022Z,84.20
2018-04-15T19:57:27.886Z,83.40
2018-04-15T20:00:01.599Z,84.20
2018-04-15T20:02:35.397Z,84.30
2018-04-15T20:05:09.281Z,84.10
2018-04-15T20:07:43.209Z,85.10
2018-04-15T20:10:17.855Z,86.10
2018-04-15T20:12:52.454Z,86.50
2018-04-15T20:15:27.114Z,86.50
2018-04-15T20:18:00.899Z,86.30
2018-04-15T20:20:35.457Z,86.30
2018-04-15T20:23:09.112Z,86.30
2018-04-15T20:25:43.204Z,86.20
2018-04-15T20:28:17.811Z,85.90
2018-04-15T20:30:51.631Z,85.90
2018-04-15T20:33:25.418Z,86.60
2018-04-15T20:36:01.050Z,87.70
2018-04-15T20:38:34.887Z,87.10
2018-04-15T20:41:08.699Z,87.50
2018-04-15T20:43:42.437Z,87.60
2018-04-15T20:46:16.670Z,87.70
2018-04-15T20:48:52.464Z,88.30
2018-04-15T20:51:27.350Z,88.50
2018-04-15T20:54:01.041Z,89.30
2018-04-15T20:56:35.099Z,89.20
2018-04-15T20:59:08.782Z,89.60
